Time,TemperatureF,DewpointF,PressureIn,WindDirection,WindDirectionDegrees,WindSpeedMPH,WindSpeedGustMPH,Humidity,HourlyPrecipIn,Conditions,Clouds,dailyrainin,SoftwareType,DateUTC
2013-04-25 00:01:00,49.8,47.6,29.95,SW,225,5.0,8.0,92,0.00,,,0.00,LWC V2.10 B1702,2013-04-25 04:01:00,
2013-04-25 00:06:00,50.0,48.1,29.96,South,186,4.0,8.0,93,0.00,,,0.00,LWC V2.10 B1702,2013-04-25 04:06:00,
2013-04-25 00:11:00,50.1,47.9,29.95,West,267,3.0,8.0,92,0.00,,,0.00,LWC V2.10 B1702,2013-04-25 04:11:00,
2013-04-25 00:16:00,50.3,48.1,29.95,SSW,202,6.0,7.0,92,0.00,,,0.00,LWC V2.10 B1702,2013-04-25 04:16:00,
2013-04-25 00:21:00,50.3,48.1,29.95,WSW,257,0.0,6.0,92,0.00,,,0.00,LWC V2.10 B1702,2013-04-25 04:21:00,
2013-04-25 00:26:00,50.4,48.2,29.95,WSW,248,5.0,6.0,92,0.00,,,0.00,LWC V2.10 B1702,2013-04-25 04:26:00,
2013-04-25 00:31:00,50.5,48.3,29.95,SW,225,3.0,6.0,92,0.00,,,0.00,LWC V2.10 B1702,2013-04-25 04:31:00,
2013-04-25 00:36:00,50.7,48.5,29.95,SSW,194,3.0,8.0,92,0.00,,,0.00,LWC V2.10 B1702,2013-04-25 04:36:00,
2013-04-25 00:41:00,51.0,48.8,29.94,WSW,238,1.0,7.0,92,0.00,,,0.00,LWC V2.10 B1702,2013-04-25 04:41:00,
2013-04-25 00:46:00,51.4,49.4,29.95,WSW,248,5.0,12.0,93,0.00,,,0.00,LWC V2.10 B1702,2013-04-25 04:46:00,
2013-04-25 00:51:00,51.9,49.9,29.94,West,275,6.0,6.0,93,0.00,,,0.00,LWC V2.10 B1702,2013-04-25 04:51:00,
2013-04-25 00:56:00,52.4,50.4,29.94,South,172,5.0,9.0,93,0.00,,,0.00,LWC V2.10 B1702,2013-04-25 04:56:00,
2013-04-25 01:01:00,52.7,50.7,29.94,WSW,246,6.0,10.0,93,0.00,,,0.00,LWC V2.10 B1702,2013-04-25 05:01:00,
2013-04-25 01:06:00,53.0,50.7,29.94,SW,223,3.0,8.0,92,0.00,,,0.00,LWC V2.10 B1702,2013-04-25 05:06:00,
2013-04-25 01:11:00,53.3,51.0,29.94,SW,225,4.0,9.0,92,0.00,,,0.00,LWC V2.10 B1702,2013-04-25 05:11:00,
2013-04-25 01:16:00,53.5,51.2,29.94,SW,219,6.0,10.0,92,0.00,,,0.00,LWC V2.10 B1702,2013-04-25 05:16:00,
2013-04-25 01:21:00,53.7,51.4,29.93,SW,225,4.0,11.0,92,0.00,,,0.00,LWC V2.10 B1702,2013-04-25 05:21:00,
2013-04-25 01:26:00,53.8,51.5,29.93,WSW,244,9.0,13.0,92,0.00,,,0.00,LWC V2.10 B1702,2013-04-25 05:26:00,
2013-04-25 01:31:00,54.0,51.7,29.93,South,183,3.0,9.0,92,0.00,,,0.00,LWC V2.10 B1702,2013-04-25 05:31:00,
2013-04-25 01:36:00,54.2,51.6,29.93,SW,215,6.0,10.0,91,0.00,,,0.00,LWC V2.10 B1702,2013-04-25 05:36:00,
2013-04-25 01:41:00,54.3,51.7,29.93,West,277,4.0,9.0,91,0.00,,,0.00,LWC V2.10 B1702,2013-04-25 05:41:00,
2013-04-25 01:46:00,54.5,51.9,29.93,SW,216,4.0,8.0,91,0.00,,,0.00,LWC V2.10 B1702,2013-04-25 05:46:00,
2013-04-25 01:51:00,54.6,52.0,29.93,SSW,207,7.0,13.0,91,0.00,,,0.00,LWC V2.10 B1702,2013-04-25 05:51:00,
2013-04-25 01:56:00,54.9,52.3,29.92,West,262,5.0,8.0,91,0.00,,,0.00,LWC V2.10 B1702,2013-04-25 05:56:00,
2013-04-25 02:01:00,55.2,52.6,29.92,WSW,254,12.0,12.0,91,0.00,,,0.00,LWC V2.10 B1702,2013-04-25 06:01:00,
2013-04-25 02:06:00,55.4,52.5,29.92,WSW,246,9.0,11.0,90,0.00,,,0.00,LWC V2.10 B1702,2013-04-25 06:06:00,
2013-04-25 02:11:00,55.6,52.7,29.92,SW,223,8.0,14.0,90,0.00,,,0.00,LWC V2.10 B1702,2013-04-25 06:11:00,
2013-04-25 02:16:00,55.8,52.6,29.92,WSW,240,8.0,17.0,89,0.00,,,0.00,LWC V2.10 B1702,2013-04-25 06:16:00,
2013-04-25 02:21:00,55.9,52.7,29.92,West,266,5.0,12.0,89,0.00,,,0.00,LWC V2.10 B1702,2013-04-25 06:21:00,
2013-04-25 02:26:00,56.0,52.8,29.92,WSW,251,3.0,9.0,89,0.00,,,0.00,LWC V2.10 B1702,2013-04-25 06:26:00,
2013-04-25 02:31:00,56.0,52.8,29.92,WSW,244,11.0,12.0,89,0.00,,,0.00,LWC V2.10 B1702,2013-04-25 06:31:00,
2013-04-25 02:36:00,56.1,52.9,29.91,South,183,7.0,13.0,89,0.00,,,0.00,LWC V2.10 B1702,2013-04-25 06:36:00,
2013-04-25 02:41:00,56.2,53.0,29.91,WSW,251,6.0,6.0,89,0.00,,,0.00,LWC V2.10 B1702,2013-04-25 06:41:00,
2013-04-25 02:46:00,56.2,52.7,29.90,SW,232,7.0,16.0,88,0.00,,,0.00,LWC V2.10 B1702,2013-04-25 06:46:00,
2013-04-25 02:51:00,56.3,52.8,29.90,West,275,6.0,9.0,88,0.00,,,0.00,LWC V2.10 B1702,2013-04-25 06:51:00,
2013-04-25 02:56:00,56.4,52.9,29.91,SW,231,7.0,9.0,88,0.00,,,0.00,LWC V2.10 B1702,2013-04-25 06:56:00,
2013-04-25 03:01:00,56.4,52.9,29.91,SW,234,3.0,12.0,88,0.00,,,0.00,LWC V2.10 B1702,2013-04-25 07:01:00,
2013-04-25 03:06:00,56.2,52.7,29.90,WSW,243,6.0,10.0,88,0.00,,,0.00,LWC V2.10 B1702,2013-04-25 07:06:00,
2013-04-25 03:11:00,56.1,52.6,29.90,South,183,5.0,9.0,88,0.00,,,0.00,LWC V2.10 B1702,2013-04-25 07:11:00,
2013-04-25 03:16:00,56.0,52.5,29.90,WSW,257,7.0,12.0,88,0.00,,,0.00,LWC V2.10 B1702,2013-04-25 07:16:00,
2013-04-25 03:21:00,55.8,52.3,29.91,SW,216,8.0,12.0,88,0.00,,,0.00,LWC V2.10 B1702,2013-04-25 07:21:00,
2013-04-25 03:26:00,55.6,52.1,29.91,NW,315,4.0,12.0,88,0.00,,,0.00,LWC V2.10 B1702,2013-04-25 07:26:00,
2013-04-25 03:31:00,55.4,52.2,29.91,WSW,239,1.0,9.0,89,0.00,,,0.00,LWC V2.10 B1702,2013-04-25 07:31:00,
2013-04-25 03:36:00,55.3,52.1,29.91,WSW,242,6.0,10.0,89,0.00,,,0.00,LWC V2.10 B1702,2013-04-25 07:36:00,
2013-04-25 03:41:00,55.3,52.1,29.91,WSW,252,6.0,13.0,89,0.00,,,0.00,LWC V2.10 B1702,2013-04-25 07:41:00,
2013-04-25 03:46:00,55.3,52.1,29.92,West,265,7.0,13.0,89,0.00,,,0.00,LWC V2.10 B1702,2013-04-25 07:46:00,
2013-04-25 03:51:00,55.3,52.1,29.91,WSW,248,3.0,9.0,89,0.00,,,0.00,LWC V2.10 B1702,2013-04-25 07:51:00,
2013-04-25 03:53:00,55.3,52.1,29.91,SW,228,2.0,15.0,89,0.00,,,0.00,LWC V2.10 B1702,2013-04-25 07:53:00,
2013-04-25 03:58:00,55.3,52.1,29.92,WNW,293,7.0,9.0,89,0.00,,,0.00,LWC V2.10 B1702,2013-04-25 07:58:00,
2013-04-25 04:03:00,55.2,52.0,29.92,SSE,163,7.0,8.0,89,0.00,,,0.00,LWC V2.10 B1702,2013-04-25 08:03:00,
2013-04-25 04:08:00,55.0,51.5,29.92,SW,236,4.0,8.0,88,0.00,,,0.00,LWC V2.10 B1702,2013-04-25 08:08:00,
2013-04-25 04:13:00,54.8,51.3,29.92,SW,221,9.0,9.0,88,0.00,,,0.00,LWC V2.10 B1702,2013-04-25 08:13:00,
2013-04-25 04:18:00,54.6,51.1,29.92,West,279,4.0,8.0,88,0.00,,,0.00,LWC V2.10 B1702,2013-04-25 08:18:00,
2013-04-25 04:23:00,54.4,50.9,29.92,WSW,253,4.0,10.0,88,0.00,,,0.00,LWC V2.10 B1702,2013-04-25 08:23:00,
2013-04-25 04:28:00,54.1,50.6,29.92,West,267,6.0,11.0,88,0.00,,,0.00,LWC V2.10 B1702,2013-04-25 08:28:00,
2013-04-25 04:33:00,53.9,50.7,29.92,WSW,240,5.0,7.0,89,0.00,,,0.00,LWC V2.10 B1702,2013-04-25 08:33:00,
2013-04-25 04:38:00,53.7,50.5,29.92,WSW,252,5.0,5.0,89,0.00,,,0.00,LWC V2.10 B1702,2013-04-25 08:38:00,
2013-04-25 04:43:00,53.5,50.3,29.92,SW,235,1.0,6.0,89,0.00,,,0.00,LWC V2.10 B1702,2013-04-25 08:43:00,
2013-04-25 04:48:00,53.4,50.2,29.93,West,279,6.0,6.0,89,0.00,,,0.00,LWC V2.10 B1702,2013-04-25 08:48:00,
2013-04-25 04:53:00,53.2,50.0,29.93,West,266,3.0,6.0,89,0.00,,,0.00,LWC V2.10 B1702,2013-04-25 08:53:00,
2013-04-25 04:58:00,53.0,49.8,29.93,SW,223,1.0,6.0,89,0.00,,,0.00,LWC V2.10 B1702,2013-04-25 08:58:00,
2013-04-25 05:03:00,52.8,49.6,29.93,SW,218,5.0,5.0,89,0.00,,,0.00,LWC V2.10 B1702,2013-04-25 09:03:00,
2013-04-25 05:08:00,52.6,49.8,29.93,West,267,3.0,4.0,90,0.00,,,0.00,LWC V2.10 B1702,2013-04-25 09:08:00,
2013-04-25 05:13:00,52.5,49.4,29.93,SW,234,2.0,7.0,89,0.00,,,0.00,LWC V2.10 B1702,2013-04-25 09:13:00,
2013-04-25 05:18:00,52.3,49.5,29.94,WNW,288,2.0,9.0,90,0.00,,,0.00,LWC V2.10 B1702,2013-04-25 09:18:00,
2013-04-25 05:23:00,52.2,49.4,29.94,SW,235,7.0,7.0,90,0.00,,,0.00,LWC V2.10 B1702,2013-04-25 09:23:00,
2013-04-25 05:28:00,52.0,49.2,29.94,WSW,244,4.0,6.0,90,0.00,,,0.00,LWC V2.10 B1702,2013-04-25 09:28:00,
2013-04-25 05:33:00,51.9,49.1,29.94,West,274,5.0,8.0,90,0.00,,,0.00,LWC V2.10 B1702,2013-04-25 09:33:00,
2013-04-25 05:38:00,51.7,48.9,29.94,WSW,246,2.0,7.0,90,0.00,,,0.00,LWC V2.10 B1702,2013-04-25 09:38:00,
2013-04-25 05:43:00,51.6,48.8,29.94,SW,235,1.0,5.0,90,0.00,,,0.00,LWC V2.10 B1702,2013-04-25 09:43:00,
2013-04-25 05:48:00,51.5,48.7,29.94,WSW,246,1.0,8.0,90,0.00,,,0.00,LWC V2.10 B1702,2013-04-25 09:48:00,
2013-04-25 05:53:00,51.3,48.8,29.95,West,278,1.0,4.0,91,0.00,,,0.00,LWC V2.10 B1702,2013-04-25 09:53:00,
2013-04-25 05:58:00,51.2,48.7,29.96,WNW,283,4.0,5.0,91,0.00,,,0.00,LWC V2.10 B1702,2013-04-25 09:58:00,
2013-04-25 06:03:00,51.1,48.6,29.96,SSW,194,7.0,7.0,91,0.00,,,0.00,LWC V2.10 B1702,2013-04-25 10:03:00,
2013-04-25 06:08:00,50.9,48.4,29.96,SW,232,2.0,8.0,91,0.00,,,0.00,LWC V2.10 B1702,2013-04-25 10:08:00,
2013-04-25 06:13:00,50.9,48.4,29.97,WSW,255,6.0,7.0,91,0.00,,,0.00,LWC V2.10 B1702,2013-04-25 10:13:00,
2013-04-25 06:18:00,50.8,48.3,29.97,SW,219,3.0,8.0,91,0.00,,,0.00,LWC V2.10 B1702,2013-04-25 10:18:00,
2013-04-25 06:23:00,50.7,48.2,29.98,WSW,240,5.0,8.0,91,0.00,,,0.00,LWC V2.10 B1702,2013-04-25 10:23:00,
2013-04-25 06:28:00,50.6,48.1,29.98,WSW,240,2.0,7.0,91,0.00,,,0.00,LWC V2.10 B1702,2013-04-25 10:28:00,
2013-04-25 06:33:00,50.5,48.0,29.98,West,272,3.0,7.0,91,0.00,,,0.00,LWC V2.10 B1702,2013-04-25 10:33:00,
2013-04-25 06:38:00,50.4,47.9,29.98,West,261,3.0,8.0,91,0.00,,,0.00,LWC V2.10 B1702,2013-04-25 10:38:00,
2013-04-25 06:43:00,50.3,47.8,29.99,WSW,238,3.0,6.0,91,0.00,,,0.00,LWC V2.10 B1702,2013-04-25 10:43:00,
2013-04-25 06:48:00,50.3,47.8,29.99,WNW,286,3.0,6.0,91,0.00,,,0.00,LWC V2.10 B1702,2013-04-25 10:48:00,
2013-04-25 06:53:00,50.2,47.7,29.99,WSW,249,3.0,6.0,91,0.00,,,0.00,LWC V2.10 B1702,2013-04-25 10:53:00,
2013-04-25 06:58:00,50.2,47.7,29.99,WNW,282,2.0,5.0,91,0.00,,,0.00,LWC V2.10 B1702,2013-04-25 10:58:00,
2013-04-25 07:03:00,50.2,47.7,29.99,SW,225,0.0,3.0,91,0.00,,,0.00,LWC V2.10 B1702,2013-04-25 11:03:00,
2013-04-25 07:08:00,50.2,47.7,30.00,West,277,3.0,6.0,91,0.00,,,0.00,LWC V2.10 B1702,2013-04-25 11:08:00,
2013-04-25 07:13:00,50.3,47.8,30.00,West,266,3.0,5.0,91,0.00,,,0.00,LWC V2.10 B1702,2013-04-25 11:13:00,
2013-04-25 07:18:00,50.3,47.8,30.00,WNW,300,6.0,6.0,91,0.00,,,0.00,LWC V2.10 B1702,2013-04-25 11:18:00,
2013-04-25 07:23:00,50.4,47.9,30.00,SW,215,6.0,6.0,91,0.00,,,0.00,LWC V2.10 B1702,2013-04-25 11:23:00,
2013-04-25 07:28:00,50.3,47.8,30.01,WNW,291,1.0,4.0,91,0.00,,,0.00,LWC V2.10 B1702,2013-04-25 11:28:00,
2013-04-25 07:33:00,50.3,47.8,30.01,WSW,257,1.0,2.0,91,0.00,,,0.00,LWC V2.10 B1702,2013-04-25 11:33:00,
2013-04-25 07:38:00,50.5,48.0,30.00,WNW,292,1.0,2.0,91,0.00,,,0.00,LWC V2.10 B1702,2013-04-25 11:38:00,
2013-04-25 07:43:00,50.8,48.3,30.00,West,266,3.0,4.0,91,0.00,,,0.00,LWC V2.10 B1702,2013-04-25 11:43:00,
2013-04-25 07:48:00,51.1,48.6,30.02,West,265,2.0,4.0,91,0.00,,,0.00,LWC V2.10 B1702,2013-04-25 11:48:00,
2013-04-25 07:53:00,51.2,48.4,30.02,West,271,0.0,4.0,90,0.00,,,0.00,LWC V2.10 B1702,2013-04-25 11:53:00,
2013-04-25 07:58:00,51.1,48.3,30.02,West,279,3.0,3.0,90,0.00,,,0.00,LWC V2.10 B1702,2013-04-25 11:58:00,
2013-04-25 08:03:00,51.1,48.3,30.02,West,271,1.0,6.0,90,0.00,,,0.00,LWC V2.10 B1702,2013-04-25 12:03:00,
2013-04-25 08:08:00,51.3,48.2,30.04,NNE,24,4.0,7.0,89,0.00,,,0.00,LWC V2.10 B1702,2013-04-25 12:08:00,
2013-04-25 08:13:00,51.1,47.1,30.03,NNW,327,1.0,3.0,86,0.00,,,0.00,LWC V2.10 B1702,2013-04-25 12:13:00,
2013-04-25 08:18:00,50.9,46.2,30.03,NNW,342,3.0,5.0,84,0.00,,,0.00,LWC V2.10 B1702,2013-04-25 12:18:00,
2013-04-25 08:23:00,50.8,45.5,30.05,North,5,6.0,8.0,82,0.00,,,0.00,LWC V2.10 B1702,2013-04-25 12:23:00,
2013-04-25 08:28:00,50.7,44.4,30.05,NNW,348,2.0,8.0,79,0.00,,,0.00,LWC V2.10 B1702,2013-04-25 12:28:00,
2013-04-25 08:33:00,50.6,44.0,30.06,North,355,5.0,10.0,78,0.00,,,0.00,LWC V2.10 B1702,2013-04-25 12:33:00,
2013-04-25 08:38:00,50.5,43.6,30.06,NNE,24,3.0,5.0,77,0.00,,,0.00,LWC V2.10 B1702,2013-04-25 12:38:00,
2013-04-25 08:43:00,50.4,43.5,30.06,NNW,344,4.0,5.0,77,0.00,,,0.00,LWC V2.10 B1702,2013-04-25 12:43:00,
2013-04-25 08:48:00,50.3,43.0,30.06,NNE,12,1.0,5.0,76,0.00,,,0.00,LWC V2.10 B1702,2013-04-25 12:48:00,
2013-04-25 08:53:00,50.3,43.0,30.06,NNE,29,2.0,7.0,76,0.00,,,0.00,LWC V2.10 B1702,2013-04-25 12:53:00,
2013-04-25 08:58:00,50.4,42.8,30.05,North,5,4.0,5.0,75,0.00,,,0.00,LWC V2.10 B1702,2013-04-25 12:58:00,
2013-04-25 09:03:00,50.6,42.6,30.05,NW,310,2.0,4.0,74,0.00,,,0.00,LWC V2.10 B1702,2013-04-25 13:03:00,
2013-04-25 09:08:00,51.0,43.0,30.05,NNE,13,2.0,4.0,74,0.00,,,0.00,LWC V2.10 B1702,2013-04-25 13:08:00,
2013-04-25 09:14:00,51.3,42.6,30.05,NW,318,3.0,5.0,72,0.00,,,0.00,LWC V2.10 B1702,2013-04-25 13:14:00,
2013-04-25 09:19:00,51.9,43.2,30.06,NW,308,7.0,7.0,72,0.00,,,0.00,LWC V2.10 B1702,2013-04-25 13:19:00,
2013-04-25 09:24:00,51.9,42.4,30.08,NW,319,3.0,7.0,70,0.00,,,0.00,LWC V2.10 B1702,2013-04-25 13:24:00,
2013-04-25 09:29:00,51.5,42.4,30.07,NNW,338,2.0,3.0,71,0.00,,,0.00,LWC V2.10 B1702,2013-04-25 13:29:00,
2013-04-25 09:34:00,51.3,42.2,30.07,WNW,294,3.0,8.0,71,0.00,,,0.00,LWC V2.10 B1702,2013-04-25 13:34:00,
2013-04-25 09:39:00,50.9,43.6,30.09,NW,323,1.0,4.0,76,0.00,,,0.01,LWC V2.10 B1702,2013-04-25 13:39:00,
2013-04-25 09:44:00,50.2,43.6,30.09,ENE,69,1.0,4.0,78,0.00,,,0.01,LWC V2.10 B1702,2013-04-25 13:44:00,
2013-04-25 09:49:00,49.6,44.0,30.09,NNW,329,0.0,2.0,81,0.00,,,0.01,LWC V2.10 B1702,2013-04-25 13:49:00,
2013-04-25 09:54:00,49.0,43.7,30.09,NE,36,1.0,4.0,82,0.05,,,0.02,LWC V2.10 B1702,2013-04-25 13:54:00,
2013-04-25 09:59:00,48.6,44.0,30.09,NNE,21,0.0,4.0,84,0.05,,,0.02,LWC V2.10 B1702,2013-04-25 13:59:00,
2013-04-25 10:04:00,48.6,44.6,30.09,NNW,330,1.0,1.0,86,0.05,,,0.03,LWC V2.10 B1702,2013-04-25 14:04:00,
2013-04-25 10:09:00,48.5,44.5,30.09,NW,325,1.0,1.0,86,0.05,,,0.03,LWC V2.10 B1702,2013-04-25 14:09:00,
2013-04-25 10:14:00,48.3,44.3,30.09,NNW,331,0.0,2.0,86,0.06,,,0.04,LWC V2.10 B1702,2013-04-25 14:14:00,
2013-04-25 10:19:00,48.2,44.2,30.09,NNW,348,0.0,0.0,86,0.06,,,0.04,LWC V2.10 B1702,2013-04-25 14:19:00,
2013-04-25 10:24:00,48.0,43.7,30.10,West,273,0.0,2.0,85,0.05,,,0.04,LWC V2.10 B1702,2013-04-25 14:24:00,
2013-04-25 10:29:00,48.1,44.1,30.10,NW,326,2.0,3.0,86,0.00,,,0.04,LWC V2.10 B1702,2013-04-25 14:29:00,
2013-04-25 10:34:00,48.3,44.3,30.10,NNW,337,2.0,2.0,86,0.00,,,0.05,LWC V2.10 B1702,2013-04-25 14:34:00,
2013-04-25 10:39:00,48.3,44.0,30.11,West,272,1.0,3.0,85,0.00,,,0.05,LWC V2.10 B1702,2013-04-25 14:39:00,
2013-04-25 10:44:00,48.5,44.2,30.10,NNW,347,0.0,1.0,85,0.00,,,0.05,LWC V2.10 B1702,2013-04-25 14:44:00,
2013-04-25 10:49:00,48.6,44.0,30.10,NNW,348,0.0,2.0,84,0.00,,,0.05,LWC V2.10 B1702,2013-04-25 14:49:00,
2013-04-25 10:54:00,48.9,44.3,30.11,NW,318,0.0,1.0,84,0.00,,,0.05,LWC V2.10 B1702,2013-04-25 14:54:00,
2013-04-25 10:59:00,49.1,44.5,30.11,NNW,346,0.0,1.0,84,0.00,,,0.05,LWC V2.10 B1702,2013-04-25 14:59:00,
2013-04-25 11:04:00,49.2,44.3,30.11,NNW,334,0.0,2.0,83,0.00,,,0.05,LWC V2.10 B1702,2013-04-25 15:04:00,
2013-04-25 11:09:00,49.4,44.1,30.11,NE,52,0.0,0.0,82,0.00,,,0.05,LWC V2.10 B1702,2013-04-25 15:09:00,
2013-04-25 11:14:00,49.6,44.0,30.11,NE,52,0.0,1.0,81,0.00,,,0.05,LWC V2.10 B1702,2013-04-25 15:14:00,
2013-04-25 11:19:00,49.9,44.0,30.10,NNW,333,0.0,0.0,80,0.00,,,0.05,LWC V2.10 B1702,2013-04-25 15:19:00,
2013-04-25 11:24:00,50.2,43.9,30.11,NW,308,2.0,3.0,79,0.00,,,0.05,LWC V2.10 B1702,2013-04-25 15:24:00,
2013-04-25 11:29:00,50.5,45.2,30.11,NW,304,0.0,2.0,82,0.00,,,0.05,LWC V2.10 B1702,2013-04-25 15:29:00,
2013-04-25 11:34:00,50.9,44.6,30.10,North,355,0.0,3.0,79,0.00,,,0.05,LWC V2.10 B1702,2013-04-25 15:34:00,
2013-04-25 11:39:00,51.5,44.9,30.10,NW,325,2.0,3.0,78,0.00,,,0.05,LWC V2.10 B1702,2013-04-25 15:39:00,
2013-04-25 11:44:00,52.2,44.5,30.11,WNW,285,0.0,2.0,75,0.00,,,0.05,LWC V2.10 B1702,2013-04-25 15:44:00,
2013-04-25 11:49:00,53.1,45.0,30.11,WNW,285,0.0,2.0,74,0.00,,,0.05,LWC V2.10 B1702,2013-04-25 15:49:00,
2013-04-25 11:54:00,53.9,45.8,30.11,NNW,336,3.0,5.0,74,0.00,,,0.05,LWC V2.10 B1702,2013-04-25 15:54:00,
2013-04-25 11:59:00,55.0,45.8,30.11,NNE,31,1.0,2.0,71,0.00,,,0.05,LWC V2.10 B1702,2013-04-25 15:59:00,
2013-04-25 12:04:00,56.1,45.7,30.11,North,10,4.0,5.0,68,0.00,,,0.05,LWC V2.10 B1702,2013-04-25 16:04:00,
2013-04-25 12:09:00,56.7,45.5,30.11,NNW,344,2.0,4.0,66,0.00,,,0.05,LWC V2.10 B1702,2013-04-25 16:09:00,
2013-04-25 12:14:00,57.1,46.6,30.12,NNE,14,2.0,2.0,68,0.00,,,0.05,LWC V2.10 B1702,2013-04-25 16:14:00,
2013-04-25 12:19:00,57.6,44.7,30.12,North,351,0.0,5.0,62,0.00,,,0.05,LWC V2.10 B1702,2013-04-25 16:19:00,
2013-04-25 12:24:00,58.1,46.0,30.12,NE,43,2.0,2.0,64,0.00,,,0.05,LWC V2.10 B1702,2013-04-25 16:24:00,
2013-04-25 12:29:00,58.0,44.2,30.13,NNW,348,2.0,6.0,60,0.00,,,0.05,LWC V2.10 B1702,2013-04-25 16:29:00,
2013-04-25 12:34:00,57.6,42.5,30.12,WNW,291,3.0,4.0,57,0.00,,,0.05,LWC V2.10 B1702,2013-04-25 16:34:00,
2013-04-25 12:39:00,57.3,43.5,30.13,NE,34,1.0,3.0,60,0.00,,,0.05,LWC V2.10 B1702,2013-04-25 16:39:00,
2013-04-25 12:44:00,57.7,43.9,30.12,NW,323,2.0,2.0,60,0.00,,,0.05,LWC V2.10 B1702,2013-04-25 16:44:00,
2013-04-25 12:49:00,58.2,43.9,30.12,NE,40,1.0,4.0,59,0.00,,,0.05,LWC V2.10 B1702,2013-04-25 16:49:00,
2013-04-25 12:54:00,58.7,44.0,30.13,NNW,346,0.0,2.0,58,0.00,,,0.05,LWC V2.10 B1702,2013-04-25 16:54:00,
2013-04-25 12:59:00,59.3,45.4,30.13,WSW,246,3.0,5.0,60,0.00,,,0.05,LWC V2.10 B1702,2013-04-25 16:59:00,
2013-04-25 13:04:00,59.3,45.0,30.12,NNE,19,1.0,4.0,59,0.00,,,0.05,LWC V2.10 B1702,2013-04-25 17:04:00,
2013-04-25 13:09:00,59.9,44.6,30.12,NW,306,0.0,1.0,57,0.00,,,0.05,LWC V2.10 B1702,2013-04-25 17:09:00,
2013-04-25 13:14:00,60.6,45.3,30.12,WSW,238,1.0,3.0,57,0.00,,,0.05,LWC V2.10 B1702,2013-04-25 17:14:00,
2013-04-25 13:19:00,60.6,43.4,30.12,NW,309,0.0,4.0,53,0.00,,,0.05,LWC V2.10 B1702,2013-04-25 17:19:00,
2013-04-25 13:24:00,60.2,44.0,30.12,West,277,0.0,3.0,55,0.00,,,0.05,LWC V2.10 B1702,2013-04-25 17:24:00,
2013-04-25 13:29:00,60.0,42.8,30.12,SW,220,3.0,6.0,53,0.00,,,0.05,LWC V2.10 B1702,2013-04-25 17:29:00,
2013-04-25 13:34:00,60.1,43.4,30.12,WNW,290,2.0,5.0,54,0.00,,,0.05,LWC V2.10 B1702,2013-04-25 17:34:00,
2013-04-25 13:39:00,60.5,43.8,30.12,WNW,282,0.0,5.0,54,0.00,,,0.05,LWC V2.10 B1702,2013-04-25 17:39:00,
2013-04-25 13:44:00,60.9,42.6,30.12,West,278,2.0,4.0,51,0.00,,,0.05,LWC V2.10 B1702,2013-04-25 17:44:00,
2013-04-25 13:49:00,60.6,42.9,30.11,SW,231,4.0,5.0,52,0.00,,,0.05,LWC V2.10 B1702,2013-04-25 17:49:00,
2013-04-25 13:54:00,60.6,42.4,30.11,West,261,3.0,5.0,51,0.00,,,0.05,LWC V2.10 B1702,2013-04-25 17:54:00,
2013-04-25 13:59:00,60.6,41.9,30.12,WSW,238,5.0,6.0,50,0.00,,,0.05,LWC V2.10 B1702,2013-04-25 17:59:00,
2013-04-25 14:04:00,60.6,43.4,30.12,West,263,3.0,5.0,53,0.00,,,0.05,LWC V2.10 B1702,2013-04-25 18:04:00,
2013-04-25 14:09:00,60.5,41.2,30.12,SW,234,2.0,6.0,49,0.00,,,0.05,LWC V2.10 B1702,2013-04-25 18:09:00,
2013-04-25 14:14:00,60.7,40.9,30.12,West,262,2.0,4.0,48,0.00,,,0.05,LWC V2.10 B1702,2013-04-25 18:14:00,
2013-04-25 14:19:00,60.9,41.6,30.12,West,260,0.0,4.0,49,0.00,,,0.05,LWC V2.10 B1702,2013-04-25 18:19:00,
2013-04-25 14:24:00,61.0,42.7,30.12,WSW,257,3.0,5.0,51,0.00,,,0.05,LWC V2.10 B1702,2013-04-25 18:24:00,
2013-04-25 14:29:00,61.3,43.5,30.12,SW,218,2.0,5.0,52,0.00,,,0.05,LWC V2.10 B1702,2013-04-25 18:29:00,
2013-04-25 14:34:00,61.6,41.2,30.12,WSW,246,2.0,3.0,47,0.00,,,0.05,LWC V2.10 B1702,2013-04-25 18:34:00,
2013-04-25 14:39:00,61.3,42.5,30.12,West,259,0.0,4.0,50,0.00,,,0.05,LWC V2.10 B1702,2013-04-25 18:39:00,
2013-04-25 14:44:00,61.3,40.9,30.12,SW,223,2.0,4.0,47,0.00,,,0.05,LWC V2.10 B1702,2013-04-25 18:44:00,
2013-04-25 14:49:00,61.5,42.2,30.12,WSW,239,2.0,4.0,49,0.00,,,0.05,LWC V2.10 B1702,2013-04-25 18:49:00,
2013-04-25 14:54:00,61.8,40.8,30.11,WSW,242,3.0,4.0,46,0.00,,,0.05,LWC V2.10 B1702,2013-04-25 18:54:00,
2013-04-25 14:59:00,62.0,42.6,30.11,WNW,296,3.0,4.0,49,0.00,,,0.05,LWC V2.10 B1702,2013-04-25 18:59:00,
2013-04-25 15:04:00,61.7,45.4,30.11,WSW,248,1.0,8.0,55,0.00,,,0.05,LWC V2.10 B1702,2013-04-25 19:04:00,
2013-04-25 15:09:00,62.0,45.2,30.11,SSW,200,4.0,6.0,54,0.00,,,0.05,LWC V2.10 B1702,2013-04-25 19:09:00,
2013-04-25 15:14:00,62.1,43.2,30.11,WSW,252,3.0,9.0,50,0.00,,,0.05,LWC V2.10 B1702,2013-04-25 19:14:00,
2013-04-25 15:19:00,61.9,43.6,30.11,SW,228,4.0,8.0,51,0.00,,,0.05,LWC V2.10 B1702,2013-04-25 19:19:00,
2013-04-25 15:24:00,61.3,44.0,30.11,West,262,2.0,7.0,53,0.00,,,0.05,LWC V2.10 B1702,2013-04-25 19:24:00,
2013-04-25 15:29:00,60.9,44.6,30.11,WSW,237,5.0,5.0,55,0.00,,,0.05,LWC V2.10 B1702,2013-04-25 19:29:00,
2013-04-25 15:34:00,60.3,44.5,30.11,WSW,254,4.0,8.0,56,0.00,,,0.05,LWC V2.10 B1702,2013-04-25 19:34:00,
2013-04-25 15:39:00,59.5,45.6,30.12,WSW,248,3.0,6.0,60,0.00,,,0.05,LWC V2.10 B1702,2013-04-25 19:39:00,
2013-04-25 15:44:00,59.0,45.1,30.12,West,264,2.0,6.0,60,0.00,,,0.05,LWC V2.10 B1702,2013-04-25 19:44:00,
2013-04-25 15:49:00,58.8,44.9,30.12,SW,236,3.0,7.0,60,0.00,,,0.05,LWC V2.10 B1702,2013-04-25 19:49:00,
2013-04-25 15:54:00,59.3,45.4,30.12,South,179,3.0,6.0,60,0.00,,,0.05,LWC V2.10 B1702,2013-04-25 19:54:00,
2013-04-25 15:59:00,59.6,44.3,30.12,WSW,250,6.0,7.0,57,0.00,,,0.05,LWC V2.10 B1702,2013-04-25 19:59:00,
2013-04-25 16:04:00,59.5,42.8,30.12,SW,230,4.0,8.0,54,0.00,,,0.05,LWC V2.10 B1702,2013-04-25 20:04:00,
2013-04-25 16:09:00,59.4,42.7,30.12,SW,219,5.0,5.0,54,0.00,,,0.05,LWC V2.10 B1702,2013-04-25 20:09:00,
2013-04-25 16:14:00,59.0,41.9,30.12,SW,235,6.0,6.0,53,0.00,,,0.05,LWC V2.10 B1702,2013-04-25 20:14:00,
2013-04-25 16:19:00,58.6,42.5,30.12,West,264,1.0,8.0,55,0.00,,,0.05,LWC V2.10 B1702,2013-04-25 20:19:00,
2013-04-25 16:24:00,58.6,42.0,30.12,SW,224,2.0,7.0,54,0.00,,,0.05,LWC V2.10 B1702,2013-04-25 20:24:00,
2013-04-25 16:29:00,58.4,41.8,30.12,West,259,6.0,6.0,54,0.00,,,0.05,LWC V2.10 B1702,2013-04-25 20:29:00,
2013-04-25 16:34:00,58.2,42.6,30.13,SW,232,5.0,5.0,56,0.00,,,0.05,LWC V2.10 B1702,2013-04-25 20:34:00,
2013-04-25 16:39:00,57.9,41.4,30.13,SW,219,3.0,7.0,54,0.00,,,0.05,LWC V2.10 B1702,2013-04-25 20:39:00,
2013-04-25 16:44:00,57.7,41.2,30.13,SW,224,6.0,6.0,54,0.00,,,0.05,LWC V2.10 B1702,2013-04-25 20:44:00,
2013-04-25 16:49:00,57.5,41.9,30.14,WSW,240,1.0,3.0,56,0.00,,,0.05,LWC V2.10 B1702,2013-04-25 20:49:00,
2013-04-25 16:54:00,57.3,40.3,30.13,SSW,205,2.0,6.0,53,0.00,,,0.05,LWC V2.10 B1702,2013-04-25 20:54:00,
2013-04-25 16:59:00,57.2,40.7,30.14,WSW,250,1.0,3.0,54,0.00,,,0.05,LWC V2.10 B1702,2013-04-25 20:59:00,
2013-04-25 17:04:00,57.2,40.7,30.14,WSW,247,8.0,8.0,54,0.00,,,0.05,LWC V2.10 B1702,2013-04-25 21:04:00,
2013-04-25 17:09:00,57.2,40.2,30.14,SW,229,3.0,6.0,53,0.00,,,0.05,LWC V2.10 B1702,2013-04-25 21:09:00,
2013-04-25 17:14:00,57.0,40.5,30.14,WSW,240,4.0,7.0,54,0.00,,,0.05,LWC V2.10 B1702,2013-04-25 21:14:00,
2013-04-25 17:19:00,56.7,39.8,30.14,SW,217,5.0,7.0,53,0.00,,,0.05,LWC V2.10 B1702,2013-04-25 21:19:00,
2013-04-25 17:24:00,56.5,41.0,30.14,WSW,252,4.0,5.0,56,0.00,,,0.05,LWC V2.10 B1702,2013-04-25 21:24:00,
2013-04-25 17:29:00,56.3,39.9,30.14,SSW,193,3.0,4.0,54,0.00,,,0.05,LWC V2.10 B1702,2013-04-25 21:29:00,
2013-04-25 17:34:00,56.1,40.2,30.14,SSE,151,3.0,6.0,55,0.00,,,0.05,LWC V2.10 B1702,2013-04-25 21:34:00,
2013-04-25 17:39:00,55.8,40.8,30.14,SW,236,1.0,4.0,57,0.00,,,0.05,LWC V2.10 B1702,2013-04-25 21:39:00,
2013-04-25 17:44:00,55.8,40.3,30.15,WSW,238,4.0,4.0,56,0.00,,,0.05,LWC V2.10 B1702,2013-04-25 21:44:00,
2013-04-25 17:49:00,55.8,40.8,30.15,SSW,209,1.0,2.0,57,0.00,,,0.05,LWC V2.10 B1702,2013-04-25 21:49:00,
2013-04-25 17:54:00,56.1,41.5,30.15,SSW,209,2.0,2.0,58,0.00,,,0.05,LWC V2.10 B1702,2013-04-25 21:54:00,
2013-04-25 17:59:00,56.5,41.5,30.15,WSW,249,3.0,4.0,57,0.00,,,0.05,LWC V2.10 B1702,2013-04-25 21:59:00,
2013-04-25 18:04:00,56.9,41.8,30.15,West,265,3.0,4.0,57,0.00,,,0.05,LWC V2.10 B1702,2013-04-25 22:04:00,
2013-04-25 18:09:00,56.8,42.2,30.15,WSW,242,2.0,3.0,58,0.00,,,0.05,LWC V2.10 B1702,2013-04-25 22:09:00,
2013-04-25 18:14:00,56.7,41.6,30.15,SW,225,1.0,4.0,57,0.00,,,0.05,LWC V2.10 B1702,2013-04-25 22:14:00,
2013-04-25 18:19:00,56.7,41.6,30.16,SW,229,3.0,3.0,57,0.00,,,0.05,LWC V2.10 B1702,2013-04-25 22:19:00,
2013-04-25 18:24:00,56.8,40.8,30.16,WSW,238,4.0,5.0,55,0.00,,,0.05,LWC V2.10 B1702,2013-04-25 22:24:00,
2013-04-25 18:29:00,56.6,39.7,30.16,SW,227,2.0,3.0,53,0.00,,,0.05,LWC V2.10 B1702,2013-04-25 22:29:00,
2013-04-25 18:34:00,56.6,43.3,30.16,WSW,244,1.0,2.0,61,0.00,,,0.05,LWC V2.10 B1702,2013-04-25 22:34:00,
2013-04-25 18:39:00,56.3,40.8,30.16,WSW,246,0.0,4.0,56,0.00,,,0.05,LWC V2.10 B1702,2013-04-25 22:39:00,
2013-04-25 18:44:00,56.1,40.2,30.16,WSW,241,1.0,2.0,55,0.00,,,0.05,LWC V2.10 B1702,2013-04-25 22:44:00,
2013-04-25 18:49:00,55.9,40.4,30.16,WSW,238,1.0,3.0,56,0.00,,,0.05,LWC V2.10 B1702,2013-04-25 22:49:00,
2013-04-25 18:54:00,55.7,41.6,30.17,SW,225,0.0,3.0,59,0.00,,,0.05,LWC V2.10 B1702,2013-04-25 22:54:00,
2013-04-25 18:59:00,55.3,42.1,30.17,SW,227,3.0,4.0,61,0.00,,,0.05,LWC V2.10 B1702,2013-04-25 22:59:00,
2013-04-25 19:04:00,55.1,42.7,30.17,South,182,0.0,3.0,63,0.00,,,0.05,LWC V2.10 B1702,2013-04-25 23:04:00,
2013-04-25 19:09:00,54.7,41.9,30.17,South,185,0.0,3.0,62,0.00,,,0.05,LWC V2.10 B1702,2013-04-25 23:09:00,
2013-04-25 19:14:00,54.3,42.0,30.17,WSW,242,0.0,0.0,63,0.00,,,0.05,LWC V2.10 B1702,2013-04-25 23:14:00,
2013-04-25 19:19:00,54.0,41.7,30.17,WSW,242,0.0,0.0,63,0.00,,,0.05,LWC V2.10 B1702,2013-04-25 23:19:00,
2013-04-25 19:24:00,53.7,41.8,30.18,WSW,242,0.0,0.0,64,0.00,,,0.05,LWC V2.10 B1702,2013-04-25 23:24:00,
2013-04-25 19:29:00,53.4,41.9,30.18,WSW,242,0.0,0.0,65,0.00,,,0.05,LWC V2.10 B1702,2013-04-25 23:29:00,
2013-04-25 19:34:00,53.0,43.5,30.18,WSW,242,0.0,1.0,70,0.00,,,0.05,LWC V2.10 B1702,2013-04-25 23:34:00,
2013-04-25 19:39:00,52.9,43.4,30.18,WSW,242,0.0,0.0,70,0.00,,,0.05,LWC V2.10 B1702,2013-04-25 23:39:00,
2013-04-25 19:44:00,53.9,49.5,30.18,WSW,242,0.0,0.0,85,0.00,,,0.05,LWC V2.10 B1702,2013-04-25 23:44:00,
2013-04-25 19:49:00,55.0,49.6,30.19,WSW,242,0.0,0.0,82,0.00,,,0.05,LWC V2.10 B1702,2013-04-25 23:49:00,
2013-04-25 19:54:00,55.5,48.8,30.19,WSW,242,0.0,0.0,78,0.00,,,0.05,LWC V2.10 B1702,2013-04-25 23:54:00,
2013-04-25 19:59:00,55.5,46.2,30.19,WSW,242,0.0,0.0,71,0.00,,,0.05,LWC V2.10 B1702,2013-04-25 23:59:00,
2013-04-25 20:04:00,55.3,46.4,30.19,SW,216,0.0,0.0,72,0.00,,,0.05,LWC V2.10 B1702,2013-04-26 00:04:00,
2013-04-25 20:09:00,55.1,44.3,30.19,SW,216,0.0,0.0,67,0.00,,,0.05,LWC V2.10 B1702,2013-04-26 00:09:00,
2013-04-25 20:14:00,54.5,42.2,30.20,SW,216,0.0,0.0,63,0.00,,,0.05,LWC V2.10 B1702,2013-04-26 00:14:00,
2013-04-25 20:19:00,53.6,40.5,30.20,SW,219,0.0,1.0,61,0.00,,,0.05,LWC V2.10 B1702,2013-04-26 00:19:00,
2013-04-25 20:24:00,52.6,40.0,30.20,SW,225,2.0,2.0,62,0.00,,,0.05,LWC V2.10 B1702,2013-04-26 00:24:00,
2013-04-25 20:29:00,51.9,39.7,30.20,WSW,243,0.0,2.0,63,0.00,,,0.05,LWC V2.10 B1702,2013-04-26 00:29:00,
2013-04-25 20:34:00,51.3,39.5,30.20,WSW,238,0.0,2.0,64,0.00,,,0.05,LWC V2.10 B1702,2013-04-26 00:34:00,
2013-04-25 20:39:00,50.9,39.6,30.21,WSW,238,0.0,0.0,65,0.00,,,0.05,LWC V2.10 B1702,2013-04-26 00:39:00,
2013-04-25 20:44:00,50.4,39.5,30.21,WSW,238,0.0,0.0,66,0.00,,,0.05,LWC V2.10 B1702,2013-04-26 00:44:00,
2013-04-25 20:49:00,50.0,39.9,30.21,WSW,238,0.0,0.0,68,0.00,,,0.05,LWC V2.10 B1702,2013-04-26 00:49:00,
2013-04-25 20:54:00,49.6,39.9,30.21,WSW,238,0.0,0.0,69,0.00,,,0.05,LWC V2.10 B1702,2013-04-26 00:54:00,
2013-04-25 20:59:00,49.2,40.2,30.21,WSW,238,0.0,0.0,71,0.00,,,0.05,LWC V2.10 B1702,2013-04-26 00:59:00,
2013-04-25 21:04:00,48.7,39.7,30.22,WSW,238,0.0,0.0,71,0.00,,,0.05,LWC V2.10 B1702,2013-04-26 01:04:00,
2013-04-25 21:09:00,48.3,39.7,30.22,WSW,238,0.0,0.0,72,0.00,,,0.05,LWC V2.10 B1702,2013-04-26 01:09:00,
2013-04-25 21:14:00,48.0,40.1,30.22,WSW,238,0.0,0.0,74,0.00,,,0.05,LWC V2.10 B1702,2013-04-26 01:14:00,
2013-04-25 21:19:00,47.8,40.3,30.22,WSW,238,0.0,0.0,75,0.00,,,0.05,LWC V2.10 B1702,2013-04-26 01:19:00,
2013-04-25 21:24:00,47.6,40.4,30.22,WSW,238,0.0,0.0,76,0.00,,,0.05,LWC V2.10 B1702,2013-04-26 01:24:00,
2013-04-25 21:29:00,47.4,40.6,30.22,WSW,238,0.0,0.0,77,0.00,,,0.05,LWC V2.10 B1702,2013-04-26 01:29:00,
2013-04-25 21:34:00,47.3,40.5,30.22,WSW,238,0.0,0.0,77,0.00,,,0.05,LWC V2.10 B1702,2013-04-26 01:34:00,
2013-04-25 21:39:00,47.0,40.5,30.22,WSW,238,0.0,0.0,78,0.00,,,0.05,LWC V2.10 B1702,2013-04-26 01:39:00,
2013-04-25 21:44:00,46.8,40.3,30.23,WSW,238,0.0,0.0,78,0.00,,,0.05,LWC V2.10 B1702,2013-04-26 01:44:00,
2013-04-25 21:49:00,46.6,40.4,30.23,WSW,238,0.0,0.0,79,0.00,,,0.05,LWC V2.10 B1702,2013-04-26 01:49:00,
2013-04-25 21:54:00,46.5,40.3,30.23,WSW,238,0.0,0.0,79,0.00,,,0.05,LWC V2.10 B1702,2013-04-26 01:54:00,
2013-04-25 21:59:00,46.3,40.5,30.23,WSW,238,0.0,0.0,80,0.00,,,0.05,LWC V2.10 B1702,2013-04-26 01:59:00,
2013-04-25 22:04:00,46.2,40.4,30.23,WSW,238,0.0,0.0,80,0.00,,,0.05,LWC V2.10 B1702,2013-04-26 02:04:00,
2013-04-25 22:09:00,46.1,40.3,30.23,WSW,238,0.0,0.0,80,0.00,,,0.05,LWC V2.10 B1702,2013-04-26 02:09:00,
2013-04-25 22:14:00,46.1,40.6,30.23,WSW,238,0.0,0.0,81,0.00,,,0.05,LWC V2.10 B1702,2013-04-26 02:14:00,
2013-04-25 22:19:00,45.9,40.4,30.23,WSW,238,0.0,0.0,81,0.00,,,0.05,LWC V2.10 B1702,2013-04-26 02:19:00,
2013-04-25 22:24:00,45.8,40.3,30.23,WSW,238,0.0,0.0,81,0.00,,,0.05,LWC V2.10 B1702,2013-04-26 02:24:00,
2013-04-25 22:29:00,45.5,40.3,30.23,WSW,238,0.0,0.0,82,0.00,,,0.05,LWC V2.10 B1702,2013-04-26 02:29:00,
2013-04-25 22:34:00,45.3,40.1,30.23,WSW,238,0.0,0.0,82,0.00,,,0.05,LWC V2.10 B1702,2013-04-26 02:34:00,
2013-04-25 22:39:00,45.1,39.9,30.24,WSW,238,0.0,0.0,82,0.00,,,0.05,LWC V2.10 B1702,2013-04-26 02:39:00,
2013-04-25 22:44:00,44.9,39.7,30.24,WSW,238,0.0,0.0,82,0.00,,,0.05,LWC V2.10 B1702,2013-04-26 02:44:00,
2013-04-25 22:49:00,44.7,39.9,30.24,WSW,238,0.0,0.0,83,0.00,,,0.05,LWC V2.10 B1702,2013-04-26 02:49:00,
2013-04-25 22:54:00,44.5,39.7,30.24,WSW,238,0.0,0.0,83,0.00,,,0.05,LWC V2.10 B1702,2013-04-26 02:54:00,
2013-04-25 22:59:00,44.3,39.5,30.24,WSW,238,0.0,0.0,83,0.00,,,0.05,LWC V2.10 B1702,2013-04-26 02:59:00,
2013-04-25 23:04:00,44.2,39.7,30.24,WSW,238,0.0,0.0,84,0.00,,,0.05,LWC V2.10 B1702,2013-04-26 03:04:00,
2013-04-25 23:09:00,44.0,39.5,30.24,WSW,238,0.0,0.0,84,0.00,,,0.05,LWC V2.10 B1702,2013-04-26 03:09:00,
2013-04-25 23:14:00,43.8,39.3,30.24,WSW,238,0.0,0.0,84,0.00,,,0.05,LWC V2.10 B1702,2013-04-26 03:14:00,
2013-04-25 23:19:00,43.6,39.1,30.24,WSW,238,0.0,0.0,84,0.00,,,0.05,LWC V2.10 B1702,2013-04-26 03:19:00,
2013-04-25 23:24:00,43.5,39.3,30.24,WSW,238,0.0,0.0,85,0.00,,,0.05,LWC V2.10 B1702,2013-04-26 03:24:00,
2013-04-25 23:29:00,43.3,39.1,30.24,WSW,238,0.0,0.0,85,0.00,,,0.05,LWC V2.10 B1702,2013-04-26 03:29:00,
2013-04-25 23:34:00,43.1,38.9,30.24,WSW,238,0.0,0.0,85,0.00,,,0.05,LWC V2.10 B1702,2013-04-26 03:34:00,
2013-04-25 23:39:00,42.9,39.0,30.24,WSW,238,0.0,0.0,86,0.00,,,0.05,LWC V2.10 B1702,2013-04-26 03:39:00,
2013-04-25 23:44:00,42.7,38.8,30.24,WSW,238,0.0,0.0,86,0.00,,,0.05,LWC V2.10 B1702,2013-04-26 03:44:00,
2013-04-25 23:49:00,42.6,38.7,30.25,WSW,238,0.0,0.0,86,0.00,,,0.05,LWC V2.10 B1702,2013-04-26 03:49:00,
2013-04-25 23:54:00,42.4,38.5,30.25,WSW,238,0.0,0.0,86,0.00,,,0.05,LWC V2.10 B1702,2013-04-26 03:54:00,
2013-04-25 23:59:00,42.2,38.3,30.24,WSW,238,0.0,0.0,86,0.00,,,0.05,LWC V2.10 B1702,2013-04-26 03:59:00,